Sira — V7QT5 — position and weather

sailwx.info

Track history (hours):
 
Tides and Currents Weather Stations Pressure Air Temp Water Temp Dewpoint Dewpoint Depression Visibility Wind Speed Wind Dir Waves Ship Positions

Sira

Last reported at 2014-Jul-06 02:33 UTC. Time now 2014-Jul-26 15:10 UTC.
Position N 36°32' E 015°21'.
Warning: this ship's position is 20 days out of date.

Length 147 m; draft 6.2 m.

Type: Tanker. MMSI: 538003434.

Date/timePositionNaut miles runAvg speedWind from/ knotsBaromVisibWave heightAir tempDewpointWater temp
2014-Jul-06 02:33N 36°32' E 015°21'15 6.9
2014-Jul-06 00:24N 36°24' E 015°06'1112.8
2014-Jul-05 23:32N 36°25' E 014°53'1313.2
2014-Jul-05 22:33N 36°26' E 014°37'1313.2
2014-Jul-05 21:33N 36°30' E 014°21'1313.1
2014-Jul-05 20:33N 36°34' E 014°06'1313.1
2014-Jul-05 19:33N 36°38' E 013°50'1313.4
2014-Jul-05 18:33N 36°42' E 013°34'1413.5
2014-Jul-05 17:33N 36°47' E 013°18'1413.6
2014-Jul-05 16:33N 36°52' E 013°02'1312.9
2014-Jul-05 15:33N 36°57' E 012°48'4 3.6
2014-Jul-05 14:33N 36°59' E 012°44'3 2.6
2014-Jul-05 13:33N 37°02' E 012°44'9 8.5
2014-Jul-05 12:33N 36°58' E 012°34'1413.1
2014-Jul-05 11:28N 37°02' E 012°17'1412.9
2014-Jul-05 10:23N 37°07' E 012°01'3612.7
2014-Jul-05 07:32N 37°19' E 011°17'1312.8
2014-Jul-05 06:33N 37°24' E 011°03'1313.4
2014-Jul-05 05:33N 37°31' E 010°49'1413.7
2014-Jul-05 04:33N 37°38' E 010°34'4313.0
2014-Jul-05 01:17N 37°55' E 009°44'2313.0
2014-Jul-04 23:32N 37°55' E 009°16'1313.1
2014-Jul-04 22:32N 37°55' E 008°59'1413.7
2014-Jul-04 21:33N 37°55' E 008°42'1413.6
2014-Jul-04 20:33N 37°55' E 008°25'25013.0
2014-Jul-04 01:20N 37°10' E 003°14'2413.2
2014-Jul-03 23:32N 37°06' E 002°45'1313.2
2014-Jul-03 22:33N 37°03' E 002°29'5413.0
2014-Jul-03 18:25N 36°53' E 001°23'33414.0
2014-Jul-02 18:33N 35°57' W 005°26'  
Track history (hours):
 
Tides and Currents Weather Stations Pressure Air Temp Water Temp Dewpoint Dewpoint Depression Visibility Wind Speed Wind Dir Waves Ship Positions

Sira

Last reported at 2014-Jul-06 02:33 UTC. Time now 2014-Jul-26 15:10 UTC.
Position N 36°32' E 015°21'.
Warning: this ship's position is 20 days out of date.

Length 147 m; draft 6.2 m.

Type: Tanker. MMSI: 538003434.

Date/timePositionNaut miles runAvg speedWind from/ knotsBaromVisibWave heightAir tempDewpointWater temp
2014-Jul-06 02:33N 36°32' E 015°21'15 6.9
2014-Jul-06 00:24N 36°24' E 015°06'1112.8
2014-Jul-05 23:32N 36°25' E 014°53'1313.2
2014-Jul-05 22:33N 36°26' E 014°37'1313.2
2014-Jul-05 21:33N 36°30' E 014°21'1313.1
2014-Jul-05 20:33N 36°34' E 014°06'1313.1
2014-Jul-05 19:33N 36°38' E 013°50'1313.4
2014-Jul-05 18:33N 36°42' E 013°34'1413.5
2014-Jul-05 17:33N 36°47' E 013°18'1413.6
2014-Jul-05 16:33N 36°52' E 013°02'1312.9
2014-Jul-05 15:33N 36°57' E 012°48'4 3.6
2014-Jul-05 14:33N 36°59' E 012°44'3 2.6
2014-Jul-05 13:33N 37°02' E 012°44'9 8.5
2014-Jul-05 12:33N 36°58' E 012°34'1413.1
2014-Jul-05 11:28N 37°02' E 012°17'1412.9
2014-Jul-05 10:23N 37°07' E 012°01'3612.7
2014-Jul-05 07:32N 37°19' E 011°17'1312.8
2014-Jul-05 06:33N 37°24' E 011°03'1313.4
2014-Jul-05 05:33N 37°31' E 010°49'1413.7
2014-Jul-05 04:33N 37°38' E 010°34'4313.0
2014-Jul-05 01:17N 37°55' E 009°44'2313.0
2014-Jul-04 23:32N 37°55' E 009°16'1313.1
2014-Jul-04 22:32N 37°55' E 008°59'1413.7
2014-Jul-04 21:33N 37°55' E 008°42'1413.6
2014-Jul-04 20:33N 37°55' E 008°25'25013.0
2014-Jul-04 01:20N 37°10' E 003°14'2413.2
2014-Jul-03 23:32N 37°06' E 002°45'1313.2
2014-Jul-03 22:33N 37°03' E 002°29'5413.0
2014-Jul-03 18:25N 36°53' E 001°23'33414.0
2014-Jul-02 18:33N 35°57' W 005°26'  

Dump ship's entire track history